Time;durP1;ratioP1;P1;durP2;ratioP2;P2;SDS_P1;SDS_P2;PMS_P1;PMS_P2;Temp;Humidity;BMP_temperature;BMP_pressure;BME280_temperature;BME280_humidity;BME280_pressure;Samples;Min_cycle;Max_cycle;Signal;HPM_P1;HPM_P2
2022/07/28 00:00:01;;;;;;;5.77;4.47;;;;;;;;;;5033511;28;20195;-79
2022/07/28 00:02:29;;;;;;;4.70;4.30;;;;;;;;;;5032918;28;20655;-79
2022/07/28 00:04:56;;;;;;;3.90;3.60;;;;;;;;;;5016962;28;20198;-79
2022/07/28 00:07:23;;;;;;;9.43;4.60;;;;;;;;;;5033980;28;20195;-79
2022/07/28 00:09:54;;;;;;;4.53;4.03;;;;;;;;;;5034197;28;20187;-79
2022/07/28 00:12:21;;;;;;;22.07;6.60;;;;;;;;;;5034294;28;20209;-79
2022/07/28 00:14:48;;;;;;;6.07;4.50;;;;;;;;;;5034392;28;20762;-79
2022/07/28 00:17:16;;;;;;;4.50;4.17;;;;;;;;;;5016820;28;20203;-80
2022/07/28 00:19:43;;;;;;;6.40;4.67;;;;;;;;;;5032993;28;20205;-80
2022/07/28 00:22:10;;;;;;;4.50;4.10;;;;;;;;;;5032217;28;20222;-80
2022/07/28 00:24:37;;;;;;;5.40;3.90;;;;;;;;;;5033776;28;20206;-80
2022/07/28 00:27:06;;;;;;;7.35;4.35;;;;;;;;;;5032639;28;20230;-80
2022/07/28 00:29:33;;;;;;;5.93;4.30;;;;;;;;;;5016866;28;20206;-80
2022/07/28 00:32:01;;;;;;;4.07;3.60;;;;;;;;;;5033797;28;20209;-80
2022/07/28 00:34:28;;;;;;;5.00;4.50;;;;;;;;;;5016425;28;20626;-80
2022/07/28 00:36:55;;;;;;;4.33;4.03;;;;;;;;;;5032865;28;20202;-80
2022/07/28 00:39:22;;;;;;;5.13;4.07;;;;;;;;;;5032116;28;20278;-80
2022/07/28 00:41:49;;;;;;;4.57;4.13;;;;;;;;;;5031351;28;20225;-80
2022/07/28 00:44:18;;;;;;;4.70;4.30;;;;;;;;;;5033009;28;20199;-80
2022/07/28 00:46:45;;;;;;;6.27;4.60;;;;;;;;;;5032894;28;20618;-80
2022/07/28 00:49:14;;;;;;;7.57;4.10;;;;;;;;;;5033585;28;20575;-80
2022/07/28 00:51:41;;;;;;;5.83;4.53;;;;;;;;;;5033897;28;20230;-80
2022/07/28 00:54:09;;;;;;;4.50;4.10;;;;;;;;;;5033689;28;20572;-79
2022/07/28 00:56:36;;;;;;;4.40;4.10;;;;;;;;;;5032161;28;20206;-80
2022/07/28 00:59:03;;;;;;;5.87;5.07;;;;;;;;;;5032195;28;20199;-79
2022/07/28 01:01:32;;;;;;;6.50;4.80;;;;;;;;;;5033305;28;20202;-79
2022/07/28 01:04:02;;;;;;;4.83;3.90;;;;;;;;;;5032551;28;20206;-80
2022/07/28 01:06:52;;;;;;;4.73;4.30;;;;;;;;;;5032111;28;20606;-80
2022/07/28 01:09:30;;;;;;;5.93;4.27;;;;;;;;;;5033467;28;20205;-80
2022/07/28 01:12:03;;;;;;;6.10;4.57;;;;;;;;;;5033207;28;20576;-80
2022/07/28 01:14:37;;;;;;;12.80;5.37;;;;;;;;;;5031948;28;20245;-80
2022/07/28 01:17:10;;;;;;;10.20;4.40;;;;;;;;;;5033958;28;20201;-80
2022/07/28 01:19:41;;;;;;;7.43;4.27;;;;;;;;;;5031787;28;20289;-80
2022/07/28 01:22:11;;;;;;;4.83;4.33;;;;;;;;;;5033002;28;20218;-80
2022/07/28 01:24:49;;;;;;;4.90;4.50;;;;;;;;;;5032908;28;20195;-80
2022/07/28 01:27:28;;;;;;;7.60;4.40;;;;;;;;;;5032931;28;20195;-80
2022/07/28 01:30:05;;;;;;;8.77;5.13;;;;;;;;;;5031738;28;20202;-80
2022/07/28 01:32:38;;;;;;;5.37;4.97;;;;;;;;;;5032620;28;20206;-80
2022/07/28 01:35:10;;;;;;;5.83;4.50;;;;;;;;;;5032895;28;20203;-80
2022/07/28 01:37:41;;;;;;;5.50;4.90;;;;;;;;;;5032524;28;20213;-80
2022/07/28 01:40:10;;;;;;;5.87;5.00;;;;;;;;;;5032555;28;20681;-80
2022/07/28 01:42:39;;;;;;;5.27;4.83;;;;;;;;;;5032134;28;20222;-80
2022/07/28 01:45:08;;;;;;;5.80;5.20;;;;;;;;;;5015077;28;20210;-80
2022/07/28 01:47:37;;;;;;;5.47;5.07;;;;;;;;;;5032549;28;20218;-80
2022/07/28 01:50:08;;;;;;;5.13;4.73;;;;;;;;;;5032657;28;20240;-79
2022/07/28 01:52:36;;;;;;;7.47;5.80;;;;;;;;;;5030650;28;20680;-79
2022/07/28 01:55:04;;;;;;;7.50;6.77;;;;;;;;;;5030897;28;20577;-79
2022/07/28 01:57:33;;;;;;;6.77;5.83;;;;;;;;;;5031066;28;20237;-79
2022/07/28 02:00:01;;;;;;;5.63;5.13;;;;;;;;;;5032466;28;20194;-79
2022/07/28 02:02:29;;;;;;;6.43;5.37;;;;;;;;;;5032134;28;20693;-82
2022/07/28 02:04:59;;;;;;;6.00;5.50;;;;;;;;;;5031014;28;20202;-82
2022/07/28 02:07:28;;;;;;;6.17;5.60;;;;;;;;;;5030741;28;20249;-81
2022/07/28 02:09:57;;;;;;;6.67;5.97;;;;;;;;;;5032208;28;20199;-81
2022/07/28 02:12:24;;;;;;;6.57;5.97;;;;;;;;;;5031977;28;20665;-82
2022/07/28 02:15:08;;;;;;;15.83;6.43;;;;;;;;;;5032358;28;20226;-82
2022/07/28 02:17:36;;;;;;;11.17;5.83;;;;;;;;;;5030364;28;20317;-82
2022/07/28 02:20:08;;;;;;;6.00;5.50;;;;;;;;;;5031894;28;20202;-82
2022/07/28 02:22:37;;;;;;;6.73;4.73;;;;;;;;;;5030958;28;20225;-81
2022/07/28 02:25:05;;;;;;;5.70;5.10;;;;;;;;;;5031888;28;20657;-81
2022/07/28 02:27:36;;;;;;;6.80;4.93;;;;;;;;;;5028969;28;20260;-82
2022/07/28 02:30:06;;;;;;;7.87;5.20;;;;;;;;;;5032115;28;20198;-81
2022/07/28 02:32:44;;;;;;;6.17;5.40;;;;;;;;;;5030806;28;20253;-81
2022/07/28 02:35:16;;;;;;;6.07;5.57;;;;;;;;;;5031679;28;20680;-82
2022/07/28 02:37:47;;;;;;;8.53;5.10;;;;;;;;;;5030354;28;20209;-82
2022/07/28 02:40:16;;;;;;;5.80;5.30;;;;;;;;;;5030483;28;20199;-83
2022/07/28 02:42:46;;;;;;;10.20;6.43;;;;;;;;;;5031581;28;20226;-82
2022/07/28 02:45:15;;;;;;;6.43;5.07;;;;;;;;;;5030747;28;20206;-82
2022/07/28 02:47:47;;;;;;;6.53;5.50;;;;;;;;;;5030475;28;20264;-82
2022/07/28 02:50:17;;;;;;;8.73;5.70;;;;;;;;;;5045038;28;20195;-82
2022/07/28 02:52:46;;;;;;;6.23;5.63;;;;;;;;;;5030325;28;20658;-83
2022/07/28 02:55:15;;;;;;;8.73;5.07;;;;;;;;;;5031429;28;20290;-83
2022/07/28 02:57:42;;;;;;;6.43;5.00;;;;;;;;;;5031496;28;20226;-83
2022/07/28 03:00:11;;;;;;;8.33;6.43;;;;;;;;;;5014202;28;20257;-83
2022/07/28 03:02:40;;;;;;;5.93;5.40;;;;;;;;;;5028928;28;20600;-82
2022/07/28 03:05:08;;;;;;;6.33;5.63;;;;;;;;;;5033435;28;20202;-83
2022/07/28 03:07:36;;;;;;;6.47;5.87;;;;;;;;;;5034307;28;20202;-82
2022/07/28 03:10:05;;;;;;;7.20;6.60;;;;;;;;;;5035361;28;20210;-82
2022/07/28 03:12:32;;;;;;;65.90;11.93;;;;;;;;;;5034151;28;20213;-83
2022/07/28 03:14:59;;;;;;;16.57;8.20;;;;;;;;;;5017019;28;20230;-82
2022/07/28 03:17:26;;;;;;;8.50;6.43;;;;;;;;;;5033986;28;20257;-82
2022/07/28 03:19:53;;;;;;;119.77;16.73;;;;;;;;;;5034265;28;20559;-82
2022/07/28 03:22:20;;;;;;;76.47;13.47;;;;;;;;;;5034514;28;20214;-82
2022/07/28 03:24:51;;;;;;;5.93;5.43;;;;;;;;;;5033525;28;20209;-82
2022/07/28 03:27:23;;;;;;;7.03;5.47;;;;;;;;;;5032399;28;20191;-82
2022/07/28 03:29:53;;;;;;;5.17;4.67;;;;;;;;;;5018333;28;20639;-82
2022/07/28 03:32:21;;;;;;;6.00;5.50;;;;;;;;;;5034015;28;20253;-82
2022/07/28 03:34:51;;;;;;;6.87;6.30;;;;;;;;;;5034112;28;20268;-82
2022/07/28 03:37:22;;;;;;;7.20;6.53;;;;;;;;;;5034405;28;20203;-82
2022/07/28 03:39:51;;;;;;;8.10;6.60;;;;;;;;;;5033978;28;20218;-82
2022/07/28 03:42:19;;;;;;;6.37;5.77;;;;;;;;;;5033838;28;20214;-82
2022/07/28 03:44:47;;;;;;;8.97;5.53;;;;;;;;;;5033484;28;20230;-81
2022/07/28 03:47:14;;;;;;;8.10;6.20;;;;;;;;;;5017026;28;20612;-81
2022/07/28 03:49:41;;;;;;;6.93;6.07;;;;;;;;;;5034244;28;20209;-81
2022/07/28 03:52:08;;;;;;;12.60;7.40;;;;;;;;;;5032680;28;20199;-82
2022/07/28 03:54:36;;;;;;;10.03;6.30;;;;;;;;;;5033231;28;20753;-82
2022/07/28 03:57:04;;;;;;;7.77;5.77;;;;;;;;;;5034716;28;20203;-82
2022/07/28 03:59:31;;;;;;;6.77;6.23;;;;;;;;;;5031986;28;20203;-81
2022/07/28 04:01:59;;;;;;;9.27;6.37;;;;;;;;;;5033581;28;20194;-82
2022/07/28 04:04:26;;;;;;;7.70;6.30;;;;;;;;;;5032944;28;20226;-82
2022/07/28 04:06:53;;;;;;;15.00;5.83;;;;;;;;;;5015629;28;20199;-82
2022/07/28 04:09:20;;;;;;;7.57;6.07;;;;;;;;;;5049763;28;20723;-82
2022/07/28 04:11:47;;;;;;;18.87;6.57;;;;;;;;;;5033918;28;20201;-82
2022/07/28 04:14:16;;;;;;;8.60;5.50;;;;;;;;;;5033333;28;20280;-81
2022/07/28 04:16:47;;;;;;;6.20;5.60;;;;;;;;;;5017553;28;20206;-81
2022/07/28 04:19:15;;;;;;;7.33;6.37;;;;;;;;;;5034333;28;20207;-81
2022/07/28 04:21:42;;;;;;;13.17;6.60;;;;;;;;;;5034565;28;20730;-82
2022/07/28 04:24:10;;;;;;;8.83;6.63;;;;;;;;;;5016659;28;20234;-82
2022/07/28 04:26:37;;;;;;;5.73;5.23;;;;;;;;;;5033080;28;20226;-86
2022/07/28 04:29:05;;;;;;;5.77;5.27;;;;;;;;;;5034132;28;20194;-86
2022/07/28 04:31:34;;;;;;;8.00;6.57;;;;;;;;;;5034413;28;20199;-86
2022/07/28 04:34:02;;;;;;;11.30;6.53;;;;;;;;;;5033103;28;20276;-86
2022/07/28 04:36:30;;;;;;;6.80;6.13;;;;;;;;;;5032255;28;20198;-86
2022/07/28 04:38:58;;;;;;;7.57;6.93;;;;;;;;;;5032008;28;20748;-86
2022/07/28 04:41:26;;;;;;;8.60;7.20;;;;;;;;;;5016182;28;20284;-86
2022/07/28 04:43:53;;;;;;;8.77;7.97;;;;;;;;;;5034428;28;20222;-86
2022/07/28 04:46:21;;;;;;;10.07;7.30;;;;;;;;;;5032923;28;20206;-86
2022/07/28 04:48:49;;;;;;;9.10;8.20;;;;;;;;;;5013484;28;20289;-86
2022/07/28 04:51:16;;;;;;;10.03;8.87;;;;;;;;;;5033812;28;20214;-86
2022/07/28 04:53:43;;;;;;;11.03;9.20;;;;;;;;;;5016165;28;20244;-86
2022/07/28 04:56:11;;;;;;;10.10;6.83;;;;;;;;;;5014412;28;20665;-86
2022/07/28 04:58:38;;;;;;;10.83;7.07;;;;;;;;;;5015659;28;20203;-86
2022/07/28 05:01:05;;;;;;;14.03;7.93;;;;;;;;;;5030778;28;20199;-86
2022/07/28 05:03:32;;;;;;;13.30;8.50;;;;;;;;;;5014951;28;20222;-86
2022/07/28 05:06:01;;;;;;;9.27;8.13;;;;;;;;;;5031794;28;20211;-86
2022/07/28 05:08:28;;;;;;;10.67;9.77;;;;;;;;;;5030459;28;20202;-85
2022/07/28 05:10:56;;;;;;;13.83;10.57;;;;;;;;;;5030956;28;20223;-86
2022/07/28 05:13:23;;;;;;;11.73;10.50;;;;;;;;;;5032088;28;20199;-86
2022/07/28 05:15:50;;;;;;;10.83;9.93;;;;;;;;;;5014107;28;20284;-86
2022/07/28 05:18:17;;;;;;;13.27;10.13;;;;;;;;;;5013956;28;20202;-86
2022/07/28 05:20:44;;;;;;;10.67;9.77;;;;;;;;;;5031582;28;20191;-86
2022/07/28 05:23:16;;;;;;;13.40;10.20;;;;;;;;;;5031357;28;20661;-83
2022/07/28 05:25:43;;;;;;;23.80;11.23;;;;;;;;;;5029947;28;20293;-84
2022/07/28 05:28:10;;;;;;;17.20;11.70;;;;;;;;;;5031346;28;20202;-85
2022/07/28 05:30:37;;;;;;;15.57;14.07;;;;;;;;;;5031777;28;20194;-84
2022/07/28 05:33:04;;;;;;;13.13;11.73;;;;;;;;;;5031007;28;20191;-84
2022/07/28 05:35:32;;;;;;;11.73;10.70;;;;;;;;;;5029495;28;20206;-83
2022/07/28 05:38:00;;;;;;;12.03;11.00;;;;;;;;;;5030816;28;20201;-81
2022/07/28 05:40:28;;;;;;;11.93;10.67;;;;;;;;;;5031643;28;20201;-81
2022/07/28 05:42:56;;;;;;;15.87;11.03;;;;;;;;;;5029334;28;20210;-82
2022/07/28 05:45:23;;;;;;;11.20;10.20;;;;;;;;;;5029879;28;20218;-82
2022/07/28 05:47:52;;;;;;;15.27;11.43;;;;;;;;;;5013614;28;20209;-82
2022/07/28 05:50:21;;;;;;;11.00;9.97;;;;;;;;;;5014158;28;20198;-84
2022/07/28 05:52:49;;;;;;;10.67;8.03;;;;;;;;;;5031249;28;20202;-84
2022/07/28 05:55:17;;;;;;;16.00;9.70;;;;;;;;;;5030599;28;20206;-79
2022/07/28 05:57:46;;;;;;;10.87;9.33;;;;;;;;;;5031756;28;20202;-82
2022/07/28 06:00:16;;;;;;;10.93;9.23;;;;;;;;;;5031175;28;20195;-85
2022/07/28 06:02:45;;;;;;;8.40;7.70;;;;;;;;;;5013842;28;20203;-83
2022/07/28 06:05:14;;;;;;;6.60;6.00;;;;;;;;;;5030314;28;20224;-95
2022/07/28 06:07:42;;;;;;;7.90;5.93;;;;;;;;;;5031916;28;20214;-84
2022/07/28 06:10:11;;;;;;;6.23;5.47;;;;;;;;;;5033038;28;20213;-92
2022/07/28 06:12:43;;;;;;;5.27;4.77;;;;;;;;;;5029418;28;20561;-91
2022/07/28 06:15:14;;;;;;;4.97;4.53;;;;;;;;;;5012743;28;20227;-82
2022/07/28 06:17:43;;;;;;;9.60;4.30;;;;;;;;;;5012499;28;20210;-86
2022/07/28 06:20:13;;;;;;;5.00;4.57;;;;;;;;;;5012857;28;20207;-87
2022/07/28 06:22:46;;;;;;;6.20;5.07;;;;;;;;;;5012088;28;20724;-86
2022/07/28 06:25:15;;;;;;;4.67;4.27;;;;;;;;;;4996063;28;20229;-87
2022/07/28 06:27:43;;;;;;;6.47;4.57;;;;;;;;;;5012633;28;20294;-87
2022/07/28 06:33:34;;;;;;;4.72;4.32;;;;;;;;;;5013702;28;20166;-92
2022/07/28 06:36:03;;;;;;;4.68;4.28;;;;;;;;;;5029473;28;20203;-82
2022/07/28 06:41:53;;;;;;;7.20;3.85;;;;;;;;;;5033116;28;20604;-86
2022/07/28 06:44:21;;;;;;;4.30;3.73;;;;;;;;;;5033328;28;20230;-88
2022/07/28 06:46:49;;;;;;;11.38;4.40;;;;;;;;;;5032815;28;20577;-87
2022/07/28 06:52:39;;;;;;;3.88;3.58;;;;;;;;;;5032180;28;20237;-88
2022/07/28 06:55:07;;;;;;;4.65;4.25;;;;;;;;;;5031329;28;20206;-89
2022/07/28 06:57:35;;;;;;;4.40;3.92;;;;;;;;;;5032951;28;20202;-87
2022/07/28 07:00:03;;;;;;;4.82;3.55;;;;;;;;;;5030467;28;20209;-85
2022/07/28 07:02:32;;;;;;;3.83;3.45;;;;;;;;;;5031432;28;20294;-87
2022/07/28 07:04:58;;;;;;;6.95;3.97;;;;;;;;;;5031649;28;20226;-79
2022/07/28 07:07:25;;;;;;;3.65;3.35;;;;;;;;;;5030497;28;20214;-85
2022/07/28 07:09:56;;;;;;;5.03;3.30;;;;;;;;;;5030522;28;20218;-82
2022/07/28 07:12:40;;;;;;;4.32;3.20;;;;;;;;;;5030773;28;20203;-83
2022/07/28 07:15:12;;;;;;;4.18;3.88;;;;;;;;;;5032326;28;20648;-90
2022/07/28 07:17:41;;;;;;;8.57;4.10;;;;;;;;;;5012368;28;20233;-91
2022/07/28 07:20:28;;;;;;;6.15;3.92;;;;;;;;;;5012987;28;20294;-89
2022/07/28 07:22:56;;;;;;;3.50;3.20;;;;;;;;;;5012296;28;20215;-94
2022/07/28 07:25:25;;;;;;;8.30;3.80;;;;;;;;;;5012184;28;20227;-92
2022/07/28 07:27:52;;;;;;;9.02;3.42;;;;;;;;;;5011903;28;20204;-90
2022/07/28 07:30:20;;;;;;;4.15;3.53;;;;;;;;;;5010556;28;20210;-85
2022/07/28 07:32:48;;;;;;;4.05;3.70;;;;;;;;;;5012930;28;20207;-88
2022/07/28 07:35:15;;;;;;;4.95;4.05;;;;;;;;;;5012800;28;20207;-91
2022/07/28 07:37:50;;;;;;;7.75;4.13;;;;;;;;;;5011779;28;20214;-89
2022/07/28 07:40:18;;;;;;;3.90;3.67;;;;;;;;;;5011864;28;20225;-86
2022/07/28 07:42:47;;;;;;;4.03;3.63;;;;;;;;;;5017635;28;20305;-87
2022/07/28 07:45:15;;;;;;;6.85;4.28;;;;;;;;;;5029138;28;20569;-94
2022/07/28 07:47:43;;;;;;;8.95;4.38;;;;;;;;;;5031002;28;20211;-88
2022/07/28 07:50:11;;;;;;;7.22;4.65;;;;;;;;;;5032936;28;20199;-93
2022/07/28 07:52:40;;;;;;;6.75;4.15;;;;;;;;;;5036801;28;20198;-91
2022/07/28 07:55:09;;;;;;;5.40;4.97;;;;;;;;;;5037066;28;20203;-89
2022/07/28 07:57:37;;;;;;;4.55;4.15;;;;;;;;;;5034736;28;20206;-93
2022/07/28 08:00:08;;;;;;;4.90;4.40;;;;;;;;;;5035900;28;20202;-94
2022/07/28 08:02:39;;;;;;;5.22;4.72;;;;;;;;;;5035826;28;20716;-95
2022/07/28 08:05:08;;;;;;;4.70;4.25;;;;;;;;;;5035368;28;20610;-85
2022/07/28 08:07:35;;;;;;;5.22;3.95;;;;;;;;;;5033159;28;20272;-81
2022/07/28 08:13:54;;;;;;;7.15;4.45;;;;;;;;;;5013679;28;20657;-85
2022/07/28 08:16:23;;;;;;;4.10;3.70;;;;;;;;;;4983517;28;20219;-85
2022/07/28 08:18:52;;;;;;;6.47;4.70;;;;;;;;;;4990906;28;20266;-85
2022/07/28 08:21:20;;;;;;;6.63;4.78;;;;;;;;;;4993668;28;20291;-86
2022/07/28 08:23:47;;;;;;;6.68;4.57;;;;;;;;;;4993976;28;20207;-87
2022/07/28 08:26:14;;;;;;;5.35;4.35;;;;;;;;;;4994913;28;20200;-85
2022/07/28 08:28:41;;;;;;;6.18;5.53;;;;;;;;;;4993416;28;20212;-85
2022/07/28 08:31:08;;;;;;;5.47;4.97;;;;;;;;;;4986488;28;20746;-86
2022/07/28 08:33:37;;;;;;;4.78;4.38;;;;;;;;;;4993804;28;20268;-88
2022/07/28 08:36:05;;;;;;;4.97;4.57;;;;;;;;;;4993765;28;20798;-87
2022/07/28 08:38:32;;;;;;;9.00;4.85;;;;;;;;;;4976074;28;20208;-85
2022/07/28 08:41:00;;;;;;;4.97;4.20;;;;;;;;;;4992253;28;20288;-86
2022/07/28 08:43:35;;;;;;;4.22;3.90;;;;;;;;;;4993791;28;20205;-86
2022/07/28 08:46:05;;;;;;;5.20;4.13;;;;;;;;;;4993872;28;20227;-85
2022/07/28 08:48:34;;;;;;;4.63;4.05;;;;;;;;;;4993283;28;20192;-87
2022/07/28 08:51:05;;;;;;;4.50;3.78;;;;;;;;;;4985172;28;20205;-82
2022/07/28 08:53:32;;;;;;;7.20;5.35;;;;;;;;;;4977294;28;20677;-86
2022/07/28 08:56:02;;;;;;;4.50;4.10;;;;;;;;;;4994899;28;20586;-85
2022/07/28 08:58:32;;;;;;;4.43;3.97;;;;;;;;;;4992981;28;20690;-89
2022/07/28 09:04:23;;;;;;;4.43;4.13;;;;;;;;;;4995214;28;20258;-89
2022/07/28 09:06:52;;;;;;;6.25;4.43;;;;;;;;;;5010256;28;20576;-90
2022/07/28 09:09:21;;;;;;;4.45;4.07;;;;;;;;;;4993011;28;20196;-88
2022/07/28 09:11:48;;;;;;;5.10;4.63;;;;;;;;;;4996052;28;20208;-91
2022/07/28 09:14:16;;;;;;;8.13;5.07;;;;;;;;;;5000233;28;20238;-88
2022/07/28 09:16:43;;;;;;;8.68;5.80;;;;;;;;;;5031912;28;20207;-90
2022/07/28 09:19:11;;;;;;;5.63;4.68;;;;;;;;;;5031781;28;20205;-87
2022/07/28 09:21:39;;;;;;;9.95;4.55;;;;;;;;;;5032458;28;20206;-87
2022/07/28 09:24:08;;;;;;;7.93;6.60;;;;;;;;;;5031839;28;20203;-88
2022/07/28 09:26:36;;;;;;;11.82;10.63;;;;;;;;;;5031956;28;20203;-86
2022/07/28 09:29:06;;;;;;;73.63;65.50;;;;;;;;;;5033157;28;20233;-86
2022/07/28 09:35:18;;;;;;;9.50;8.52;;;;;;;;;;5033992;28;20539;-87
2022/07/28 09:37:46;;;;;;;5.95;5.22;;;;;;;;;;5031268;28;20257;-85
2022/07/28 09:40:19;;;;;;;4.95;4.45;;;;;;;;;;5033745;28;20225;-91
2022/07/28 09:42:48;;;;;;;39.03;32.33;;;;;;;;;;5031678;28;20199;-86
2022/07/28 09:45:16;;;;;;;10.45;9.43;;;;;;;;;;5032090;28;20230;-87
2022/07/28 09:51:12;;;;;;;4.97;4.57;;;;;;;;;;5031996;28;20197;-86
2022/07/28 09:53:39;;;;;;;7.10;4.63;;;;;;;;;;5030735;28;20265;-87
2022/07/28 09:56:14;;;;;;;8.27;6.50;;;;;;;;;;5032465;28;20256;-85
2022/07/28 09:58:42;;;;;;;6.45;4.53;;;;;;;;;;5032124;28;20197;-87
2022/07/28 10:01:12;;;;;;;10.50;5.10;;;;;;;;;;5030131;28;20199;-85
2022/07/28 10:03:42;;;;;;;4.10;3.80;;;;;;;;;;5030717;28;20257;-85
2022/07/28 10:06:15;;;;;;;5.53;5.03;;;;;;;;;;5029296;28;20697;-87
2022/07/28 10:08:45;;;;;;;4.60;4.18;;;;;;;;;;5025596;28;20198;-86
2022/07/28 10:11:15;;;;;;;4.78;4.38;;;;;;;;;;5031018;28;20217;-85
2022/07/28 10:13:56;;;;;;;5.68;4.47;;;;;;;;;;5023708;28;20542;-86
2022/07/28 10:16:25;;;;;;;5.95;5.38;;;;;;;;;;5031006;28;20740;-86
2022/07/28 10:18:54;;;;;;;4.50;3.70;;;;;;;;;;5030501;28;20198;-86
2022/07/28 10:21:24;;;;;;;5.38;4.97;;;;;;;;;;5030936;28;20203;-86
2022/07/28 10:23:52;;;;;;;6.30;4.30;;;;;;;;;;5030462;28;20206;-86
2022/07/28 10:26:24;;;;;;;5.45;4.60;;;;;;;;;;5031331;28;20655;-86
2022/07/28 10:28:52;;;;;;;5.50;4.60;;;;;;;;;;5031103;28;20207;-86
2022/07/28 10:31:33;;;;;;;4.38;3.95;;;;;;;;;;5029719;28;20198;-87
2022/07/28 10:34:02;;;;;;;4.93;4.18;;;;;;;;;;5028270;28;20198;-85
2022/07/28 10:36:33;;;;;;;5.88;4.70;;;;;;;;;;5030722;28;20198;-85
2022/07/28 10:39:04;;;;;;;5.22;4.82;;;;;;;;;;5029879;28;20211;-90
2022/07/28 10:41:40;;;;;;;4.80;4.40;;;;;;;;;;5028309;28;20194;-83
2022/07/28 10:44:08;;;;;;;5.03;4.07;;;;;;;;;;5030529;28;20694;-83
2022/07/28 10:46:36;;;;;;;4.93;4.53;;;;;;;;;;5029352;28;20222;-81
2022/07/28 10:49:03;;;;;;;4.78;4.40;;;;;;;;;;5031814;28;20202;-82
2022/07/28 10:51:31;;;;;;;5.95;5.43;;;;;;;;;;5031151;28;20207;-81
2022/07/28 10:54:06;;;;;;;7.18;5.45;;;;;;;;;;5031397;28;20198;-82
2022/07/28 11:00:16;;;;;;;6.00;5.30;;;;;;;;;;5033085;28;20185;-94
2022/07/28 11:06:27;;;;;;;6.07;4.72;;;;;;;;;;5033019;28;20214;-94
2022/07/28 11:08:57;;;;;;;6.03;5.43;;;;;;;;;;5029043;28;20256;-88
2022/07/28 11:11:44;;;;;;;5.40;4.90;;;;;;;;;;5031441;28;20268;-85
2022/07/28 11:14:32;;;;;;;7.63;5.93;;;;;;;;;;5030819;28;20213;-85
2022/07/28 11:17:31;;;;;;;6.15;5.65;;;;;;;;;;5031823;28;20661;-86
2022/07/28 11:23:56;;;;;;;7.60;6.03;;;;;;;;;;5032264;28;20159;-86
2022/07/28 11:26:35;;;;;;;6.75;6.15;;;;;;;;;;4955114;28;20331;-89
2022/07/28 11:29:19;;;;;;;7.88;6.10;;;;;;;;;;4956882;29;20716;-85
2022/07/28 11:32:05;;;;;;;6.38;5.88;;;;;;;;;;5008692;28;20217;-88
2022/07/28 11:35:18;;;;;;;8.45;6.22;;;;;;;;;;5033061;28;20206;-83
2022/07/28 11:38:12;;;;;;;6.35;5.75;;;;;;;;;;5035644;28;20668;-92
2022/07/28 11:40:44;;;;;;;5.55;5.07;;;;;;;;;;5036034;28;20257;-92
2022/07/28 11:43:39;;;;;;;5.85;5.32;;;;;;;;;;5035621;28;20661;-86
2022/07/28 11:46:23;;;;;;;6.50;6.00;;;;;;;;;;5000823;28;20569;-85
2022/07/28 11:49:20;;;;;;;10.55;6.47;;;;;;;;;;5033418;28;20209;-82
2022/07/28 11:52:12;;;;;;;6.72;6.22;;;;;;;;;;5015829;28;20215;-83
2022/07/28 11:58:05;;;;;;;6.75;6.03;;;;;;;;;;5015284;28;20243;-79
2022/07/28 12:00:31;;;;;;;7.63;6.60;;;;;;;;;;5013332;28;20210;-78
2022/07/28 12:02:59;;;;;;;6.55;5.85;;;;;;;;;;5030636;28;20198;-78
2022/07/28 12:05:27;;;;;;;7.22;6.50;;;;;;;;;;5031555;28;20222;-81
2022/07/28 12:07:54;;;;;;;6.25;5.75;;;;;;;;;;5034100;28;20574;-78
2022/07/28 12:10:35;;;;;;;7.32;6.78;;;;;;;;;;5032853;28;20581;-78
2022/07/28 12:13:07;;;;;;;10.60;9.57;;;;;;;;;;5032814;28;20195;-85
2022/07/28 12:15:34;;;;;;;8.32;7.63;;;;;;;;;;5032819;28;20258;-78
2022/07/28 12:18:01;;;;;;;8.65;7.97;;;;;;;;;;5034500;28;20233;-82
2022/07/28 12:20:32;;;;;;;13.15;7.95;;;;;;;;;;5031259;28;20202;-79
2022/07/28 12:23:02;;;;;;;7.22;6.72;;;;;;;;;;5032231;28;20207;-81
2022/07/28 12:25:29;;;;;;;8.35;6.90;;;;;;;;;;5034067;28;20235;-83
2022/07/28 12:27:57;;;;;;;8.25;6.93;;;;;;;;;;5033315;28;20240;-83
2022/07/28 12:37:48;;;;;;;7.18;5.95;;;;;;;;;;5032553;28;20274;-80
2022/07/28 12:40:17;;;;;;;6.75;6.15;;;;;;;;;;5025286;28;20198;-80
2022/07/28 12:42:45;;;;;;;6.07;5.68;;;;;;;;;;5032349;28;20195;-79
2022/07/28 12:51:57;;;;;;;7.15;6.60;;;;;;;;;;5029542;28;20209;-82
2022/07/28 12:54:35;;;;;;;5.93;5.53;;;;;;;;;;5032614;28;20198;-83
2022/07/28 13:00:54;;;;;;;6.93;6.28;;;;;;;;;;5034114;28;20204;-78
2022/07/28 13:03:26;;;;;;;6.47;5.88;;;;;;;;;;5033360;28;20217;-80
2022/07/28 13:06:02;;;;;;;6.72;5.90;;;;;;;;;;5014572;28;20260;-79
2022/07/28 13:08:39;;;;;;;7.38;6.68;;;;;;;;;;5030549;28;20616;-78
2022/07/28 13:11:06;;;;;;;7.28;6.68;;;;;;;;;;5030573;28;20209;-78
2022/07/28 13:13:45;;;;;;;10.50;6.50;;;;;;;;;;5030053;28;20576;-80
2022/07/28 13:16:13;;;;;;;6.82;6.05;;;;;;;;;;5029397;28;20249;-77
2022/07/28 13:18:42;;;;;;;7.18;6.57;;;;;;;;;;5029942;28;20199;-78
2022/07/28 13:21:16;;;;;;;7.13;6.43;;;;;;;;;;5033226;28;20201;-78
2022/07/28 13:23:43;;;;;;;6.22;5.68;;;;;;;;;;5032489;28;20198;-77
2022/07/28 13:26:10;;;;;;;6.60;5.82;;;;;;;;;;5029732;28;20305;-78
2022/07/28 13:28:38;;;;;;;6.85;6.25;;;;;;;;;;5031139;28;20194;-76
2022/07/28 13:31:05;;;;;;;7.88;5.68;;;;;;;;;;5031896;28;20207;-77
2022/07/28 13:33:32;;;;;;;6.03;5.43;;;;;;;;;;5026932;28;20618;-76
2022/07/28 13:36:01;;;;;;;6.63;6.03;;;;;;;;;;5031046;28;20211;-76
2022/07/28 13:38:28;;;;;;;13.75;7.32;;;;;;;;;;5029567;28;20215;-77
2022/07/28 13:40:55;;;;;;;6.43;5.93;;;;;;;;;;5030840;28;20217;-78
2022/07/28 13:43:23;;;;;;;5.97;5.47;;;;;;;;;;5030121;28;20207;-79
2022/07/28 13:45:50;;;;;;;5.72;5.25;;;;;;;;;;4999367;28;20231;-79
2022/07/28 13:48:17;;;;;;;8.35;5.72;;;;;;;;;;5001527;28;20218;-79
2022/07/28 13:50:44;;;;;;;6.25;5.60;;;;;;;;;;5032281;28;20194;-79
2022/07/28 13:53:13;;;;;;;11.07;5.30;;;;;;;;;;5032139;28;20222;-79
2022/07/28 13:55:40;;;;;;;6.78;5.07;;;;;;;;;;5031617;28;20226;-79
2022/07/28 13:58:08;;;;;;;9.10;5.38;;;;;;;;;;5031665;28;20202;-80
2022/07/28 14:00:35;;;;;;;6.35;5.85;;;;;;;;;;5032493;28;20205;-80
2022/07/28 14:03:03;;;;;;;5.57;4.85;;;;;;;;;;5015098;28;20264;-77
2022/07/28 14:05:30;;;;;;;5.55;5.00;;;;;;;;;;5032091;28;20210;-79
2022/07/28 14:07:57;;;;;;;5.40;4.88;;;;;;;;;;5030948;28;20206;-79
2022/07/28 14:10:26;;;;;;;7.47;4.85;;;;;;;;;;5028486;28;20264;-81
2022/07/28 14:12:53;;;;;;;5.95;4.80;;;;;;;;;;5013822;28;20673;-79
2022/07/28 14:15:21;;;;;;;5.78;5.22;;;;;;;;;;5014539;28;20295;-79
2022/07/28 14:17:48;;;;;;;9.35;4.97;;;;;;;;;;5031343;28;20576;-81
2022/07/28 14:20:16;;;;;;;6.43;4.50;;;;;;;;;;5030351;28;20201;-81
2022/07/28 14:22:44;;;;;;;5.72;5.07;;;;;;;;;;5031972;28;20551;-78
2022/07/28 14:25:12;;;;;;;5.05;4.75;;;;;;;;;;5030814;28;20211;-79
2022/07/28 14:27:41;;;;;;;6.47;5.60;;;;;;;;;;5031078;28;20218;-77
2022/07/28 14:30:09;;;;;;;6.82;6.13;;;;;;;;;;5031762;28;20778;-77
2022/07/28 14:32:37;;;;;;;5.85;4.72;;;;;;;;;;5031841;28;20665;-76
2022/07/28 14:35:05;;;;;;;7.63;5.03;;;;;;;;;;5030655;28;20668;-77
2022/07/28 14:41:01;;;;;;;5.93;4.40;;;;;;;;;;5032084;28;20157;-78
2022/07/28 14:43:29;;;;;;;5.72;4.55;;;;;;;;;;5029930;28;20201;-77
2022/07/28 14:45:56;;;;;;;7.68;5.35;;;;;;;;;;5031302;28;20600;-78
2022/07/28 14:48:24;;;;;;;4.78;4.32;;;;;;;;;;5030953;28;20206;-79
2022/07/28 14:51:01;;;;;;;6.25;4.47;;;;;;;;;;5031853;28;20543;-79
2022/07/28 14:53:37;;;;;;;9.25;8.02;;;;;;;;;;5029108;28;20297;-78
2022/07/28 14:59:28;;;;;;;11.35;8.32;;;;;;;;;;5032152;28;20158;-85
2022/07/28 15:01:55;;;;;;;7.72;6.90;;;;;;;;;;5036107;28;20234;-83
2022/07/28 15:04:24;;;;;;;8.38;7.28;;;;;;;;;;5018416;28;20203;-80
2022/07/28 15:06:51;;;;;;;10.32;8.07;;;;;;;;;;5033488;28;20226;-83
2022/07/28 15:09:19;;;;;;;9.40;8.32;;;;;;;;;;5018689;28;20234;-82
2022/07/28 15:11:46;;;;;;;8.65;7.35;;;;;;;;;;5033955;28;20199;-84
2022/07/28 15:14:13;;;;;;;11.65;8.38;;;;;;;;;;5032397;28;20203;-82
2022/07/28 15:16:42;;;;;;;10.55;7.65;;;;;;;;;;5033036;28;20273;-80
2022/07/28 15:19:12;;;;;;;8.38;7.45;;;;;;;;;;5034374;28;20198;-82
2022/07/28 15:21:39;;;;;;;8.52;7.70;;;;;;;;;;5033566;28;20253;-83
2022/07/28 15:24:09;;;;;;;8.73;7.03;;;;;;;;;;5016146;28;20632;-84
2022/07/28 15:26:36;;;;;;;8.00;7.30;;;;;;;;;;5035296;28;20223;-82
2022/07/28 15:29:03;;;;;;;10.57;7.70;;;;;;;;;;5036095;28;20268;-82
2022/07/28 15:31:31;;;;;;;7.00;6.30;;;;;;;;;;5036174;28;20191;-82
2022/07/28 15:34:00;;;;;;;6.32;5.50;;;;;;;;;;5034915;28;20203;-81
2022/07/28 15:36:28;;;;;;;6.05;5.45;;;;;;;;;;5032733;28;20700;-82
2022/07/28 15:38:56;;;;;;;7.00;5.50;;;;;;;;;;5034021;28;20209;-81
2022/07/28 15:41:23;;;;;;;10.18;4.63;;;;;;;;;;5033904;28;20214;-81
2022/07/28 15:43:50;;;;;;;6.55;4.38;;;;;;;;;;5034670;28;20245;-82
2022/07/28 15:46:17;;;;;;;5.43;4.85;;;;;;;;;;5033719;28;20232;-84
2022/07/28 15:48:45;;;;;;;3.97;3.60;;;;;;;;;;5033150;28;20203;-81
2022/07/28 15:51:14;;;;;;;6.03;3.72;;;;;;;;;;5016194;28;20207;-81
2022/07/28 15:53:44;;;;;;;7.95;4.00;;;;;;;;;;5031991;28;20194;-82
2022/07/28 15:56:11;;;;;;;8.80;4.43;;;;;;;;;;5034473;28;20198;-82
2022/07/28 15:58:39;;;;;;;6.40;4.38;;;;;;;;;;5031456;28;20198;-82